Time;durP1;ratioP1;P1;durP2;ratioP2;P2;SDS_P1;SDS_P2;PMS_P1;PMS_P2;Temp;Humidity;BMP_temperature;BMP_pressure;BME280_temperature;BME280_humidity;BME280_pressure;Samples;Min_cycle;Max_cycle;Signal;HPM_P1;HPM_P2
2022/03/18 00:01:07;;;;;;;12.70;6.03;;;7.80;99.90;;;;;;5275727;28;20203;-47
2022/03/18 00:03:37;;;;;;;8.20;4.87;;;7.80;99.90;;;;;;5256336;28;20529;-49
2022/03/18 00:06:12;;;;;;;7.10;4.90;;;7.80;99.90;;;;;;5245310;28;20187;-49
2022/03/18 00:08:43;;;;;;;7.27;4.83;;;7.70;99.90;;;;;;5267686;28;20204;-52
2022/03/18 00:11:15;;;;;;;18.80;6.47;;;7.70;99.90;;;;;;5260326;28;20456;-47
2022/03/18 00:13:45;;;;;;;13.63;5.33;;;7.70;99.90;;;;;;5252870;28;20189;-48
2022/03/18 00:16:16;;;;;;;13.77;5.10;;;7.70;99.90;;;;;;5242378;28;20860;-47
2022/03/18 00:21:22;;;;;;;14.43;5.30;;;7.70;99.90;;;;;;5275563;27;20225;-45
2022/03/18 00:23:52;;;;;;;9.20;4.73;;;7.70;99.90;;;;;;5267429;28;20431;-46
2022/03/18 00:26:23;;;;;;;6.17;3.90;;;7.70;99.90;;;;;;5284534;27;20434;-47
2022/03/18 00:28:53;;;;;;;6.13;4.80;;;7.80;99.90;;;;;;5271732;28;20197;-45
2022/03/18 00:31:24;;;;;;;13.37;5.00;;;7.70;99.90;;;;;;5250289;28;20286;-46
2022/03/18 00:33:55;;;;;;;8.80;5.67;;;7.70;99.90;;;;;;5244378;28;20174;-46
2022/03/18 00:36:25;;;;;;;11.63;5.50;;;7.70;99.90;;;;;;5265063;28;20471;-45
2022/03/18 00:38:56;;;;;;;12.83;6.00;;;7.70;99.90;;;;;;5266375;28;20355;-46
2022/03/18 00:41:27;;;;;;;10.33;4.80;;;7.70;99.90;;;;;;5242591;28;20185;-45
2022/03/18 00:43:58;;;;;;;11.20;5.10;;;7.70;99.90;;;;;;5262352;28;20181;-45
2022/03/18 00:46:28;;;;;;;5.27;4.77;;;7.70;99.90;;;;;;5262143;28;20431;-44
2022/03/18 00:52:04;;;;;;;6.87;4.60;;;7.60;99.90;;;;;;5262494;28;20224;-46
2022/03/18 00:54:42;;;;;;;9.00;4.63;;;7.60;99.90;;;;;;5266615;28;20798;-47
2022/03/18 00:57:13;;;;;;;10.33;5.30;;;7.70;99.90;;;;;;5265657;28;20467;-46
2022/03/18 00:59:44;;;;;;;8.30;4.80;;;7.70;99.90;;;;;;5245686;28;20468;-45
2022/03/18 01:02:14;;;;;;;10.50;5.77;;;7.70;99.90;;;;;;5246165;28;20181;-44
2022/03/18 01:04:45;;;;;;;10.07;5.30;;;7.60;99.90;;;;;;5248298;28;20215;-45
2022/03/18 01:07:16;;;;;;;6.77;4.53;;;7.60;99.90;;;;;;5246397;28;20238;-45
2022/03/18 01:09:47;;;;;;;11.77;5.70;;;7.60;99.90;;;;;;5248613;28;20192;-45
2022/03/18 01:12:17;;;;;;;21.63;4.93;;;7.60;99.90;;;;;;5263156;28;20459;-45
2022/03/18 01:14:48;;;;;;;14.10;5.57;;;7.60;99.90;;;;;;5249267;28;20575;-45
2022/03/18 01:17:18;;;;;;;13.23;6.13;;;7.60;99.90;;;;;;5254933;28;20216;-45
2022/03/18 01:19:49;;;;;;;10.53;5.70;;;7.60;99.90;;;;;;5273349;28;20258;-44
2022/03/18 01:22:20;;;;;;;16.27;5.33;;;7.60;99.90;;;;;;5255609;28;20220;-45
2022/03/18 01:24:50;;;;;;;9.60;5.63;;;7.60;99.90;;;;;;5255035;28;20600;-45
2022/03/18 01:27:21;;;;;;;6.33;4.53;;;7.60;99.90;;;;;;5273023;28;20209;-46
2022/03/18 01:29:51;;;;;;;12.03;6.60;;;7.60;99.90;;;;;;5271799;28;20193;-45
2022/03/18 01:32:22;;;;;;;9.43;5.40;;;7.70;99.90;;;;;;5272982;28;20295;-44
2022/03/18 01:34:54;;;;;;;14.83;5.17;;;7.70;99.90;;;;;;5272707;28;20277;-44
2022/03/18 01:37:24;;;;;;;12.23;4.70;;;7.70;99.90;;;;;;5272523;28;20296;-45
2022/03/18 01:39:55;;;;;;;11.40;5.33;;;7.70;99.90;;;;;;5273215;28;20514;-45
2022/03/18 01:42:25;;;;;;;12.70;5.60;;;7.70;99.90;;;;;;5271310;28;20192;-46
2022/03/18 01:44:56;;;;;;;12.43;5.70;;;7.60;99.90;;;;;;5270793;28;20197;-45
2022/03/18 01:47:27;;;;;;;12.73;5.73;;;7.60;99.90;;;;;;5257345;28;20205;-44
2022/03/18 01:49:58;;;;;;;30.70;5.37;;;7.60;99.90;;;;;;5253242;28;20442;-45
2022/03/18 01:52:29;;;;;;;9.53;4.80;;;7.60;99.90;;;;;;5270719;28;20234;-45
2022/03/18 01:55:00;;;;;;;15.03;4.60;;;7.70;99.90;;;;;;5268405;28;20452;-46
2022/03/18 01:57:30;;;;;;;8.30;4.27;;;7.70;99.90;;;;;;5273659;28;20499;-46
2022/03/18 02:00:02;;;;;;;9.30;3.90;;;7.70;99.90;;;;;;5251630;28;20178;-46
2022/03/18 02:02:34;;;;;;;6.73;4.57;;;7.60;99.90;;;;;;5253124;28;20178;-44
2022/03/18 02:05:05;;;;;;;9.83;4.57;;;7.60;99.90;;;;;;5241614;28;20431;-46
2022/03/18 02:07:37;;;;;;;6.63;4.57;;;7.60;99.90;;;;;;5249698;28;20508;-44
2022/03/18 02:10:09;;;;;;;10.53;4.90;;;7.60;99.90;;;;;;5271225;28;20531;-45
2022/03/18 02:12:41;;;;;;;6.03;4.00;;;7.60;99.90;;;;;;5270358;28;20459;-45
2022/03/18 02:15:11;;;;;;;15.50;5.13;;;7.60;99.90;;;;;;5267657;28;20438;-45
2022/03/18 02:17:42;;;;;;;10.30;4.73;;;7.60;99.90;;;;;;5253257;28;20459;-44
2022/03/18 02:20:12;;;;;;;8.83;3.97;;;7.60;99.90;;;;;;5253496;28;20616;-45
2022/03/18 02:22:43;;;;;;;20.13;4.43;;;7.70;99.90;;;;;;5270591;28;20637;-45
2022/03/18 02:25:13;;;;;;;5.23;3.73;;;7.60;99.90;;;;;;5269742;28;20596;-49
2022/03/18 02:28:01;;;;;;;7.63;4.13;;;7.60;99.90;;;;;;5268586;28;20198;-45
2022/03/18 02:30:34;;;;;;;7.13;4.20;;;7.60;99.90;;;;;;5266620;28;20240;-47
2022/03/18 02:33:04;;;;;;;10.60;4.87;;;7.60;99.90;;;;;;5261770;28;20481;-45
2022/03/18 02:35:36;;;;;;;11.43;4.37;;;7.60;99.90;;;;;;5250683;28;20643;-44
2022/03/18 02:38:07;;;;;;;11.50;4.40;;;7.60;99.90;;;;;;5250373;28;20221;-47
2022/03/18 02:40:37;;;;;;;9.27;4.17;;;7.50;99.90;;;;;;5251303;28;20478;-44
2022/03/18 02:43:08;;;;;;;8.23;3.33;;;7.50;99.90;;;;;;5248414;28;20182;-45
2022/03/18 02:45:38;;;;;;;11.93;3.67;;;7.50;99.90;;;;;;5268969;28;20209;-45
2022/03/18 02:48:09;;;;;;;14.20;3.67;;;7.50;99.90;;;;;;5268583;28;20283;-45
2022/03/18 02:50:39;;;;;;;8.67;4.40;;;7.50;99.90;;;;;;5249109;28;21786;-45
2022/03/18 02:53:10;;;;;;;20.07;3.93;;;7.50;99.90;;;;;;5267717;28;20248;-45
2022/03/18 02:55:41;;;;;;;8.70;4.37;;;7.50;99.90;;;;;;5269228;28;20166;-45
2022/03/18 02:58:11;;;;;;;5.33;3.37;;;7.50;99.90;;;;;;5248432;28;20223;-46
2022/03/18 03:00:42;;;;;;;16.40;4.10;;;7.50;99.90;;;;;;5249495;28;20192;-45
2022/03/18 03:03:12;;;;;;;6.60;3.70;;;7.60;99.90;;;;;;5266140;28;20614;-45
2022/03/18 03:08:32;;;;;;;9.23;3.43;;;7.60;99.90;;;;;;5268746;28;20208;-45
2022/03/18 03:11:02;;;;;;;14.07;4.57;;;7.50;99.90;;;;;;5250058;28;20436;-45
2022/03/18 03:13:33;;;;;;;20.07;4.17;;;7.50;99.90;;;;;;5266624;28;20189;-45
2022/03/18 03:16:04;;;;;;;8.53;3.10;;;7.50;99.90;;;;;;5267442;28;20239;-47
2022/03/18 03:18:35;;;;;;;15.87;3.57;;;7.60;99.90;;;;;;5266132;28;20454;-46
2022/03/18 03:21:06;;;;;;;7.90;3.77;;;7.60;99.90;;;;;;5264754;28;20190;-46
2022/03/18 03:23:37;;;;;;;15.00;4.77;;;7.50;99.90;;;;;;5250541;28;20423;-45
2022/03/18 03:26:08;;;;;;;9.80;3.20;;;7.50;99.90;;;;;;5267781;28;20177;-45
2022/03/18 03:28:38;;;;;;;10.80;3.27;;;7.50;99.90;;;;;;5267846;28;20254;-45
2022/03/18 03:31:09;;;;;;;24.37;3.70;;;7.50;99.90;;;;;;5266315;28;20419;-45
2022/03/18 03:33:40;;;;;;;9.27;3.07;;;7.60;99.90;;;;;;5266444;28;20178;-46
2022/03/18 03:36:11;;;;;;;13.07;4.13;;;7.60;99.90;;;;;;5266932;28;20177;-46
2022/03/18 03:38:41;;;;;;;8.97;3.33;;;7.50;99.90;;;;;;5265872;28;20676;-45
2022/03/18 03:41:12;;;;;;;8.07;2.77;;;7.50;99.90;;;;;;5266954;28;20230;-44
2022/03/18 03:43:43;;;;;;;11.10;3.30;;;7.50;99.90;;;;;;5266015;28;20224;-47
2022/03/18 03:46:14;;;;;;;16.00;3.20;;;7.50;99.90;;;;;;5265582;28;20540;-49
2022/03/18 03:48:44;;;;;;;18.27;3.50;;;7.50;99.90;;;;;;5248822;28;20466;-46
2022/03/18 03:51:15;;;;;;;13.23;3.90;;;7.40;99.90;;;;;;5267610;28;20217;-45
2022/03/18 03:53:45;;;;;;;13.83;3.43;;;7.50;99.90;;;;;;5267742;28;20196;-45
2022/03/18 03:56:16;;;;;;;12.40;4.00;;;7.40;99.90;;;;;;5267013;28;20178;-45
2022/03/18 03:58:47;;;;;;;5.30;2.60;;;7.40;99.90;;;;;;5248641;28;20206;-45
2022/03/18 04:01:18;;;;;;;4.07;2.93;;;7.40;99.90;;;;;;5265550;28;20181;-45
2022/03/18 04:03:48;;;;;;;8.57;2.77;;;7.50;99.90;;;;;;5244093;28;20440;-47
2022/03/18 04:06:19;;;;;;;14.00;3.00;;;7.40;99.90;;;;;;5248398;28;20234;-45
2022/03/18 04:08:49;;;;;;;15.23;3.77;;;7.40;99.90;;;;;;5267015;28;20228;-45
2022/03/18 04:11:20;;;;;;;15.33;3.40;;;7.40;99.90;;;;;;5264350;28;20208;-45
2022/03/18 04:13:50;;;;;;;7.87;2.77;;;7.30;99.90;;;;;;5248353;28;20174;-44
2022/03/18 04:16:21;;;;;;;6.70;3.33;;;7.30;99.90;;;;;;5266627;28;20170;-47
2022/03/18 04:18:51;;;;;;;9.10;3.83;;;7.30;99.90;;;;;;5248431;28;20284;-45
2022/03/18 04:21:22;;;;;;;14.00;3.07;;;7.30;99.90;;;;;;5264963;28;20193;-47
2022/03/18 04:23:53;;;;;;;6.37;2.83;;;7.20;99.90;;;;;;5265144;28;20199;-45
2022/03/18 04:26:23;;;;;;;15.53;3.47;;;7.20;99.90;;;;;;5250043;28;20195;-45
2022/03/18 04:28:54;;;;;;;21.20;3.60;;;7.10;99.90;;;;;;5264331;28;20206;-45
2022/03/18 04:31:24;;;;;;;15.37;3.77;;;7.10;99.90;;;;;;5264941;28;20652;-44
2022/03/18 04:33:55;;;;;;;6.63;3.33;;;7.20;99.90;;;;;;5264901;28;20246;-46
2022/03/18 04:36:25;;;;;;;9.57;3.40;;;7.10;99.90;;;;;;5246781;28;20203;-46
2022/03/18 04:38:56;;;;;;;13.97;3.20;;;6.90;99.90;;;;;;5249769;28;20287;-46
2022/03/18 04:41:26;;;;;;;11.00;2.77;;;7.00;99.90;;;;;;5264515;28;20190;-46
2022/03/18 04:43:57;;;;;;;10.10;3.30;;;7.00;99.90;;;;;;5264275;28;20212;-45
2022/03/18 04:46:31;;;;;;;7.20;2.90;;;6.90;99.90;;;;;;5248551;28;20256;-44
2022/03/18 04:49:01;;;;;;;22.90;4.43;;;6.80;99.90;;;;;;5264183;28;20220;-44
2022/03/18 04:51:32;;;;;;;15.13;3.23;;;6.70;99.90;;;;;;5246377;28;20494;-46
2022/03/18 04:54:02;;;;;;;12.93;4.23;;;6.70;99.90;;;;;;5247892;28;20859;-44
2022/03/18 04:59:23;;;;;;;15.63;3.60;;;6.50;99.90;;;;;;5264509;28;20198;-47
2022/03/18 05:01:53;;;;;;;13.07;3.20;;;6.40;99.90;;;;;;5244111;28;20435;-45
2022/03/18 05:04:24;;;;;;;11.43;3.60;;;6.30;99.90;;;;;;5247046;28;20447;-46
2022/03/18 05:06:54;;;;;;;7.77;2.60;;;6.20;99.90;;;;;;5230513;28;20718;-45
2022/03/18 05:09:25;;;;;;;15.10;3.07;;;6.20;99.90;;;;;;5265106;28;20339;-44
2022/03/18 05:11:55;;;;;;;14.30;3.20;;;6.10;99.90;;;;;;5265047;28;20246;-44
2022/03/18 05:14:26;;;;;;;18.23;2.80;;;6.10;99.90;;;;;;5245519;28;20199;-45
2022/03/18 05:16:56;;;;;;;10.03;3.17;;;6.00;99.90;;;;;;5266678;28;20276;-46
2022/03/18 05:19:27;;;;;;;14.00;2.17;;;6.00;99.90;;;;;;5267386;28;20199;-45
2022/03/18 05:21:57;;;;;;;10.10;3.33;;;5.90;99.90;;;;;;5265873;28;20202;-45
2022/03/18 05:24:28;;;;;;;20.90;3.67;;;5.90;99.90;;;;;;5265148;28;20180;-45
2022/03/18 05:26:59;;;;;;;28.33;4.13;;;5.90;99.90;;;;;;5264223;28;20190;-45
2022/03/18 05:29:30;;;;;;;16.43;3.30;;;5.80;99.90;;;;;;5265258;28;20647;-45
2022/03/18 05:32:01;;;;;;;17.77;2.90;;;5.90;99.90;;;;;;5260424;28;20583;-46
2022/03/18 05:34:32;;;;;;;8.27;2.37;;;6.00;99.90;;;;;;5265439;28;20541;-46
2022/03/18 05:37:05;;;;;;;15.10;3.40;;;6.00;99.90;;;;;;5266623;28;20430;-44
2022/03/18 05:39:36;;;;;;;14.43;3.67;;;6.10;99.90;;;;;;5259617;28;20438;-46
2022/03/18 05:42:07;;;;;;;27.23;3.27;;;6.10;99.90;;;;;;5243977;28;20475;-46
2022/03/18 05:44:37;;;;;;;5.97;2.97;;;6.20;99.90;;;;;;5230329;28;20273;-44
2022/03/18 05:47:08;;;;;;;12.63;3.10;;;6.20;99.90;;;;;;5263164;28;20180;-45
2022/03/18 05:49:38;;;;;;;9.07;2.50;;;6.20;99.90;;;;;;5261347;28;20242;-46
2022/03/18 05:52:09;;;;;;;5.87;2.37;;;6.30;99.90;;;;;;5264055;28;20201;-46
2022/03/18 05:54:39;;;;;;;22.90;3.97;;;6.30;99.90;;;;;;5263725;28;20277;-46
2022/03/18 05:57:11;;;;;;;14.10;3.07;;;6.20;99.90;;;;;;5246105;28;20238;-45
2022/03/18 05:59:42;;;;;;;16.00;2.90;;;6.30;99.90;;;;;;5241280;28;20186;-45
2022/03/18 06:02:13;;;;;;;15.33;2.93;;;6.20;99.90;;;;;;5232490;28;20461;-45
2022/03/18 06:04:44;;;;;;;8.50;2.90;;;6.20;99.90;;;;;;5265814;28;20568;-45
2022/03/18 06:07:15;;;;;;;15.33;2.87;;;6.20;99.90;;;;;;5264422;28;20953;-48
2022/03/18 06:12:35;;;;;;;9.23;2.10;;;6.10;99.90;;;;;;5261489;28;20270;-45
2022/03/18 06:15:06;;;;;;;12.67;3.33;;;6.10;99.90;;;;;;5266830;28;20434;-46
2022/03/18 06:17:36;;;;;;;8.73;2.87;;;6.20;99.90;;;;;;5263180;28;20208;-46
2022/03/18 06:20:07;;;;;;;12.33;3.17;;;6.30;99.90;;;;;;5231689;22;20245;-50
2022/03/18 06:22:38;;;;;;;7.63;2.10;;;6.50;99.90;;;;;;5195250;28;20277;-48
2022/03/18 06:25:09;;;;;;;9.87;2.83;;;6.90;99.90;;;;;;5187856;28;20523;-48
2022/03/18 06:27:39;;;;;;;9.90;3.10;;;7.30;99.90;;;;;;5197215;28;20244;-48
2022/03/18 06:30:11;;;;;;;12.00;3.53;;;7.70;99.90;;;;;;5188503;28;20302;-49
2022/03/18 06:32:42;;;;;;;22.83;3.40;;;8.10;99.90;;;;;;5177174;28;20208;-48
2022/03/18 06:35:12;;;;;;;14.50;3.60;;;8.50;99.90;;;;;;5181209;28;20442;-48
2022/03/18 06:37:43;;;;;;;8.43;2.80;;;9.00;99.90;;;;;;5179749;28;20265;-48
2022/03/18 06:40:13;;;;;;;11.33;3.63;;;9.10;99.90;;;;;;5179899;28;20204;-47
2022/03/18 06:42:44;;;;;;;18.77;3.20;;;9.00;99.90;;;;;;5177428;28;20542;-47
2022/03/18 06:45:14;;;;;;;17.90;3.73;;;8.80;99.90;;;;;;5179554;28;20183;-49
2022/03/18 06:47:45;;;;;;;12.03;2.40;;;8.80;99.90;;;;;;5180368;28;20661;-49
2022/03/18 06:50:16;;;;;;;28.20;3.90;;;9.10;99.90;;;;;;5180245;28;20200;-48
2022/03/18 06:52:46;;;;;;;17.47;3.77;;;9.50;99.90;;;;;;5181012;28;21142;-47
2022/03/18 06:55:17;;;;;;;7.60;2.87;;;9.60;99.90;;;;;;5184335;28;20272;-50
2022/03/18 06:57:47;;;;;;;16.60;3.60;;;9.80;99.90;;;;;;5182560;28;20188;-49
2022/03/18 07:00:18;;;;;;;8.33;3.20;;;10.30;99.90;;;;;;5182109;28;20552;-48
2022/03/18 07:02:48;;;;;;;12.73;3.80;;;10.80;96.30;;;;;;5178414;28;20197;-49
2022/03/18 07:05:19;;;;;;;11.40;3.53;;;11.30;90.20;;;;;;5167611;28;20897;-49
2022/03/18 07:07:50;;;;;;;12.73;3.80;;;12.00;85.70;;;;;;5165673;28;24126;-49
2022/03/18 07:10:20;;;;;;;12.67;2.90;;;12.60;72.40;;;;;;5182710;28;20212;-48
2022/03/18 07:12:51;;;;;;;6.50;2.70;;;12.70;65.60;;;;;;5183916;28;20693;-48
2022/03/18 07:15:22;;;;;;;22.87;3.13;;;12.60;64.60;;;;;;5181286;28;20545;-47
2022/03/18 07:17:55;;;;;;;9.60;2.43;;;12.80;63.30;;;;;;5181392;28;20191;-49
2022/03/18 07:20:30;;;;;;;12.20;3.33;;;13.30;61.90;;;;;;5181190;28;20303;-49
2022/03/18 07:23:14;;;;;;;10.77;2.97;;;13.50;58.10;;;;;;5179181;28;20439;-49
2022/03/18 07:25:48;;;;;;;19.30;3.33;;;13.50;58.80;;;;;;5177960;28;20895;-48
2022/03/18 07:28:19;;;;;;;9.97;2.90;;;13.40;56.40;;;;;;5177735;28;20442;-47
2022/03/18 07:30:49;;;;;;;20.03;3.33;;;12.40;58.10;;;;;;5181353;28;20474;-48
2022/03/18 07:33:20;;;;;;;13.40;3.33;;;11.90;61.60;;;;;;5179918;28;20219;-48
2022/03/18 07:35:50;;;;;;;13.43;4.00;;;11.80;63.50;;;;;;5164038;28;20184;-48
2022/03/18 07:38:21;;;;;;;8.97;2.60;;;12.00;62.50;;;;;;5175219;28;20200;-49
2022/03/18 07:40:51;;;;;;;7.63;2.93;;;12.20;61.60;;;;;;5179660;28;20668;-48
2022/03/18 07:43:22;;;;;;;15.67;4.40;;;12.70;60.10;;;;;;5171068;28;20188;-48
2022/03/18 07:45:52;;;;;;;8.73;3.27;;;13.00;58.70;;;;;;5171167;28;21251;-49
2022/03/18 07:48:26;;;;;;;19.83;3.70;;;13.40;57.10;;;;;;5171900;28;20184;-49
2022/03/18 07:50:57;;;;;;;19.70;3.23;;;13.90;55.70;;;;;;5176623;28;20625;-49
2022/03/18 07:53:27;;;;;;;10.40;2.90;;;14.20;53.90;;;;;;5178772;28;20507;-48
2022/03/18 07:55:58;;;;;;;8.70;3.07;;;14.40;52.40;;;;;;5174899;28;20361;-47
2022/03/18 07:58:28;;;;;;;14.73;3.53;;;14.40;51.60;;;;;;5174442;28;20564;-49
2022/03/18 08:00:59;;;;;;;12.97;3.07;;;14.60;51.50;;;;;;5177915;28;20204;-49
2022/03/18 08:03:30;;;;;;;23.57;4.10;;;15.20;50.50;;;;;;5180069;28;20188;-50
2022/03/18 08:06:00;;;;;;;10.60;3.67;;;15.50;49.80;;;;;;5183642;28;20212;-48
2022/03/18 08:08:31;;;;;;;14.60;3.40;;;14.90;49.50;;;;;;5177796;28;20600;-49
2022/03/18 08:11:02;;;;;;;15.63;3.13;;;13.90;51.20;;;;;;5173523;28;20228;-48
2022/03/18 08:13:33;;;;;;;11.20;3.17;;;13.10;53.30;;;;;;5177299;28;20237;-50
2022/03/18 08:16:04;;;;;;;5.33;3.20;;;12.70;55.10;;;;;;5175373;28;20196;-49
2022/03/18 08:18:36;;;;;;;19.33;3.10;;;12.30;56.20;;;;;;5179229;28;20566;-49
2022/03/18 08:21:07;;;;;;;9.50;3.73;;;11.90;57.60;;;;;;5244082;28;20466;-49
2022/03/18 08:23:37;;;;;;;19.30;3.53;;;11.30;59.90;;;;;;5175889;28;20435;-48
2022/03/18 08:26:08;;;;;;;16.27;3.67;;;11.00;63.20;;;;;;5173914;28;20195;-48
2022/03/18 08:28:38;;;;;;;11.57;3.17;;;10.60;66.30;;;;;;5180419;28;20219;-49
2022/03/18 08:31:09;;;;;;;12.60;3.23;;;10.50;72.40;;;;;;5176055;28;20216;-49
2022/03/18 08:33:39;;;;;;;26.97;3.20;;;10.90;71.80;;;;;;5171214;28;20731;-49
2022/03/18 08:36:10;;;;;;;11.23;3.50;;;11.10;70.10;;;;;;5178401;28;20263;-49
2022/03/18 08:38:41;;;;;;;19.67;3.80;;;11.10;70.20;;;;;;5176668;28;20204;-49
2022/03/18 08:41:12;;;;;;;7.37;2.57;;;10.80;70.70;;;;;;5177376;28;20204;-49
2022/03/18 08:43:42;;;;;;;9.20;2.60;;;10.30;76.90;;;;;;5180632;28;20181;-52
2022/03/18 08:46:13;;;;;;;11.70;2.97;;;10.00;81.80;;;;;;5180441;28;21016;-50
2022/03/18 08:48:45;;;;;;;15.67;3.53;;;9.90;87.70;;;;;;5181708;28;20201;-47
2022/03/18 08:51:16;;;;;;;8.20;3.50;;;9.70;90.80;;;;;;5179770;28;20499;-48
2022/03/18 08:53:46;;;;;;;14.43;3.53;;;9.30;93.40;;;;;;5181014;28;20218;-49
2022/03/18 08:56:17;;;;;;;11.70;3.17;;;9.00;98.20;;;;;;5179131;28;20451;-48
2022/03/18 08:58:49;;;;;;;8.13;3.60;;;8.80;99.90;;;;;;5180208;28;20648;-49
2022/03/18 09:01:22;;;;;;;10.83;3.50;;;8.80;99.90;;;;;;5160547;28;20314;-49
2022/03/18 09:03:53;;;;;;;16.10;3.30;;;9.00;99.90;;;;;;5176181;28;20447;-48
2022/03/18 09:06:23;;;;;;;15.10;3.50;;;9.10;99.90;;;;;;5177918;28;20447;-47
2022/03/18 09:08:56;;;;;;;13.40;3.50;;;9.10;99.90;;;;;;5178600;28;20785;-47
2022/03/18 09:11:27;;;;;;;9.10;3.30;;;9.20;99.90;;;;;;5182153;28;20245;-49
2022/03/18 09:13:57;;;;;;;13.10;4.10;;;9.40;99.90;;;;;;5177526;28;20522;-48
2022/03/18 09:16:29;;;;;;;14.20;3.40;;;9.70;99.30;;;;;;5176335;28;20544;-48
2022/03/18 09:19:00;;;;;;;10.93;3.40;;;9.50;99.40;;;;;;5171401;28;20238;-49
2022/03/18 09:21:30;;;;;;;18.57;3.30;;;9.60;99.90;;;;;;5176159;28;20463;-49
2022/03/18 09:24:02;;;;;;;20.33;4.40;;;9.70;99.70;;;;;;5179545;28;20192;-49
2022/03/18 09:26:33;;;;;;;11.63;3.93;;;9.70;98.90;;;;;;5179338;28;20180;-48
2022/03/18 09:29:04;;;;;;;12.00;2.97;;;9.70;99.60;;;;;;5175440;28;20565;-48
2022/03/18 09:31:34;;;;;;;8.67;3.50;;;9.70;99.30;;;;;;5176837;28;20184;-48
2022/03/18 09:34:05;;;;;;;19.70;3.63;;;9.80;99.30;;;;;;5174432;28;20537;-48
2022/03/18 09:36:35;;;;;;;18.63;3.77;;;9.80;99.40;;;;;;5177019;28;20188;-48
2022/03/18 09:39:06;;;;;;;11.80;3.50;;;9.70;99.30;;;;;;5183516;28;20185;-47
2022/03/18 09:41:36;;;;;;;14.57;3.50;;;9.80;98.90;;;;;;5180391;28;20214;-49
2022/03/18 09:44:07;;;;;;;11.83;3.73;;;10.00;98.20;;;;;;5179866;28;20694;-49
2022/03/18 09:46:39;;;;;;;12.70;3.40;;;10.10;98.20;;;;;;5177462;28;20201;-49
2022/03/18 09:49:13;;;;;;;10.40;3.60;;;10.20;98.00;;;;;;5179002;28;20188;-47
2022/03/18 09:51:45;;;;;;;15.97;4.00;;;10.40;97.10;;;;;;5174090;28;20792;-49
2022/03/18 09:54:17;;;;;;;13.70;4.20;;;10.50;95.20;;;;;;5174233;28;20497;-48
2022/03/18 09:56:48;;;;;;;12.83;3.77;;;10.60;94.90;;;;;;5178606;28;20495;-50
2022/03/18 09:59:21;;;;;;;17.47;4.43;;;10.80;94.10;;;;;;5180689;28;20447;-48
2022/03/18 10:02:25;;;;;;;33.80;4.40;;;11.00;92.00;;;;;;5176103;28;20466;-50
2022/03/18 10:05:01;;;;;;;13.73;5.23;;;10.70;92.50;;;;;;5175520;28;20462;-49
2022/03/18 10:07:32;;;;;;;12.30;4.70;;;10.60;93.60;;;;;;5173529;28;20466;-50
2022/03/18 10:10:16;;;;;;;20.07;6.53;;;10.70;94.20;;;;;;5185016;28;20462;-48
2022/03/18 10:12:50;;;;;;;13.80;4.90;;;10.80;93.00;;;;;;5179276;28;20200;-49
2022/03/18 10:15:28;;;;;;;20.17;5.50;;;10.80;93.30;;;;;;5176507;28;20515;-48
2022/03/18 10:17:59;;;;;;;21.63;6.70;;;10.70;93.10;;;;;;5177142;28;20440;-49
2022/03/18 10:20:35;;;;;;;16.30;5.50;;;10.60;93.10;;;;;;5174340;28;20527;-49
2022/03/18 10:23:14;;;;;;;18.60;6.10;;;10.70;93.70;;;;;;5176309;28;20192;-49
2022/03/18 10:25:51;;;;;;;9.83;4.50;;;10.60;93.80;;;;;;5178847;28;20547;-50
2022/03/18 10:28:41;;;;;;;14.53;5.10;;;10.60;93.40;;;;;;5189067;28;20435;-49
2022/03/18 10:31:20;;;;;;;24.90;6.00;;;10.60;93.00;;;;;;5178870;28;21053;-48
2022/03/18 10:37:09;;;;;;;20.07;5.60;;;10.70;91.50;;;;;;5178075;28;20929;-49
2022/03/18 10:39:41;;;;;;;10.30;5.03;;;10.60;90.90;;;;;;5180256;28;20482;-49
2022/03/18 10:42:14;;;;;;;13.40;5.07;;;10.50;91.60;;;;;;5176342;28;20431;-50
2022/03/18 10:44:51;;;;;;;13.77;5.53;;;10.50;91.80;;;;;;5177759;28;20426;-49
2022/03/18 10:47:40;;;;;;;16.43;5.93;;;10.50;93.00;;;;;;5178419;28;20441;-49
2022/03/18 10:50:11;;;;;;;14.20;4.70;;;10.60;93.40;;;;;;5175016;28;20527;-49
2022/03/18 10:52:47;;;;;;;18.63;6.00;;;10.90;90.70;;;;;;5176742;28;20623;-48
2022/03/18 10:55:30;;;;;;;10.17;4.50;;;11.00;87.50;;;;;;5178493;28;20203;-50
2022/03/18 10:58:17;;;;;;;9.53;4.47;;;11.20;85.10;;;;;;5178479;28;20496;-47
2022/03/18 11:00:50;;;;;;;18.33;5.27;;;11.40;82.20;;;;;;5174555;28;20459;-49
2022/03/18 11:03:23;;;;;;;13.27;4.60;;;11.50;79.10;;;;;;5170750;28;20451;-50
2022/03/18 11:05:54;;;;;;;24.93;5.30;;;11.50;79.00;;;;;;5175721;28;20581;-50
2022/03/18 11:08:32;;;;;;;15.37;5.60;;;11.70;78.00;;;;;;5176059;28;20444;-49
2022/03/18 11:11:14;;;;;;;13.47;5.70;;;11.80;74.20;;;;;;5174739;28;20516;-49
2022/03/18 11:14:04;;;;;;;30.27;8.20;;;11.80;72.90;;;;;;5176093;28;20502;-49
2022/03/18 11:16:38;;;;;;;14.87;5.00;;;12.00;70.80;;;;;;5171225;28;20527;-49
2022/03/18 11:19:10;;;;;;;14.73;4.60;;;12.10;67.00;;;;;;5179595;28;20935;-49
2022/03/18 11:21:41;;;;;;;8.80;4.33;;;12.10;66.70;;;;;;5174967;28;21649;-50
2022/03/18 11:24:14;;;;;;;14.33;5.40;;;12.00;66.70;;;;;;5177189;28;20438;-49
2022/03/18 11:26:48;;;;;;;12.00;5.80;;;12.10;65.70;;;;;;5175793;28;20466;-49
2022/03/18 11:29:23;;;;;;;12.33;4.20;;;12.10;65.30;;;;;;5175487;28;20470;-51
2022/03/18 11:32:12;;;;;;;20.27;5.67;;;12.00;64.80;;;;;;5173551;28;20470;-50
2022/03/18 11:35:03;;;;;;;10.30;4.37;;;12.10;65.00;;;;;;5177778;28;20431;-50
2022/03/18 11:37:33;;;;;;;19.13;5.30;;;12.10;65.00;;;;;;5177166;28;20804;-48
2022/03/18 11:40:27;;;;;;;11.03;5.27;;;12.10;65.10;;;;;;5176276;28;20466;-50
2022/03/18 11:43:30;;;;;;;10.20;4.43;;;12.10;63.80;;;;;;5173728;28;20362;-49
2022/03/18 11:46:12;;;;;;;13.00;5.23;;;12.10;62.50;;;;;;5178578;28;20443;-48
2022/03/18 11:48:58;;;;;;;13.53;3.63;;;12.00;62.00;;;;;;5176913;28;20439;-49
2022/03/18 11:51:30;;;;;;;12.53;4.93;;;12.00;62.20;;;;;;5174039;28;20477;-49
2022/03/18 11:54:16;;;;;;;11.63;4.20;;;11.90;61.80;;;;;;5174965;28;20440;-50
2022/03/18 11:56:57;;;;;;;13.53;4.73;;;11.90;61.70;;;;;;5177487;28;20930;-49
2022/03/18 11:59:39;;;;;;;6.70;4.40;;;11.80;61.30;;;;;;5169249;28;20593;-49
2022/03/18 12:02:12;;;;;;;11.13;3.97;;;11.80;61.70;;;;;;5177228;28;20813;-49
2022/03/18 12:04:46;;;;;;;8.57;3.57;;;11.90;61.40;;;;;;5177653;28;20435;-49
2022/03/18 12:07:19;;;;;;;13.50;3.67;;;12.00;59.80;;;;;;5173846;28;20523;-49
2022/03/18 12:09:52;;;;;;;9.00;4.00;;;12.20;58.20;;;;;;5172056;28;20473;-48
2022/03/18 12:12:26;;;;;;;7.20;3.70;;;12.40;57.20;;;;;;5172551;28;20455;-49
2022/03/18 12:15:00;;;;;;;7.57;2.90;;;12.50;56.30;;;;;;5175453;28;20500;-50
2022/03/18 12:17:40;;;;;;;16.67;3.50;;;12.30;55.30;;;;;;5174265;28;20442;-49
2022/03/18 12:20:15;;;;;;;7.10;2.43;;;12.30;56.20;;;;;;5189236;22;20501;-47
2022/03/18 12:22:46;;;;;;;7.27;3.23;;;12.40;55.70;;;;;;5195679;28;20474;-48
2022/03/18 12:25:18;;;;;;;9.50;3.77;;;12.60;54.30;;;;;;5197993;28;20562;-47
2022/03/18 12:27:50;;;;;;;10.23;3.30;;;12.70;52.80;;;;;;5196948;28;20443;-48
2022/03/18 12:30:29;;;;;;;11.03;3.37;;;12.70;52.60;;;;;;5185969;28;20491;-47
2022/03/18 12:33:05;;;;;;;7.73;3.13;;;12.70;52.30;;;;;;5184893;28;20477;-47
2022/03/18 12:35:45;;;;;;;11.03;3.10;;;12.80;51.80;;;;;;5177796;28;20427;-46
2022/03/18 12:38:17;;;;;;;6.43;2.63;;;12.80;50.70;;;;;;5177618;28;20438;-45
2022/03/18 12:40:59;;;;;;;5.23;2.60;;;12.90;50.80;;;;;;5175300;28;20455;-46
2022/03/18 12:43:33;;;;;;;9.53;2.30;;;13.00;51.10;;;;;;5177591;28;20457;-47
2022/03/18 12:46:04;;;;;;;9.70;3.73;;;13.10;50.60;;;;;;5181342;28;20451;-47
2022/03/18 12:48:35;;;;;;;14.27;2.77;;;13.10;49.70;;;;;;5171414;28;20443;-49
2022/03/18 12:51:06;;;;;;;5.30;3.03;;;13.00;49.70;;;;;;5178966;28;20512;-48
2022/03/18 12:53:36;;;;;;;7.27;2.97;;;12.80;49.20;;;;;;5184737;28;20650;-47
2022/03/18 12:56:07;;;;;;;8.93;3.17;;;12.80;49.20;;;;;;5170784;28;20180;-48
2022/03/18 12:58:41;;;;;;;4.00;2.50;;;12.80;49.30;;;;;;5180363;28;20267;-46
2022/03/18 13:01:12;;;;;;;8.30;3.37;;;12.90;49.00;;;;;;5180283;28;20198;-47
2022/03/18 13:03:50;;;;;;;10.03;3.63;;;13.00;48.50;;;;;;5175050;28;20968;-48
2022/03/18 13:06:24;;;;;;;9.53;2.53;;;13.00;48.30;;;;;;5184778;28;20614;-48
2022/03/18 13:09:06;;;;;;;8.77;2.33;;;13.10;47.10;;;;;;5180318;28;20451;-48
2022/03/18 13:11:39;;;;;;;6.10;2.00;;;13.20;46.60;;;;;;5175429;28;20489;-48
2022/03/18 13:14:10;;;;;;;9.30;2.43;;;13.20;44.70;;;;;;5175365;28;20494;-46
2022/03/18 13:16:43;;;;;;;9.93;2.40;;;13.20;44.50;;;;;;5175419;28;20466;-47
2022/03/18 13:19:14;;;;;;;9.53;2.50;;;13.10;45.40;;;;;;5190801;28;20554;-47
2022/03/18 13:21:47;;;;;;;7.43;2.70;;;13.10;45.70;;;;;;5176520;28;20427;-46
2022/03/18 13:24:18;;;;;;;14.07;4.80;;;13.10;44.70;;;;;;5185464;28;20209;-47
2022/03/18 13:26:48;;;;;;;10.70;3.10;;;13.10;43.80;;;;;;5181632;28;20428;-48
2022/03/18 13:32:50;;;;;;;9.00;2.20;;;13.20;43.50;;;;;;5181100;28;20605;-48